createdAt,value
2023-01-18T00:03:34.259Z,98458.72
2023-01-18T00:08:36.337Z,98466.56
2023-01-18T00:13:37.751Z,98459.53
2023-01-18T00:18:39.398Z,98462.09
2023-01-18T00:23:40.753Z,98464.81
2023-01-18T00:28:42.208Z,98467.06
2023-01-18T00:33:44.536Z,98471.41
2023-01-18T00:38:51.632Z,98463.44
2023-01-18T00:43:52.968Z,98468.72
2023-01-18T00:48:55.141Z,98466.97
2023-01-18T00:53:56.500Z,98476.72
2023-01-18T00:58:57.820Z,98474.63
2023-01-18T01:04:18.032Z,98474.94
2023-01-18T01:09:24.398Z,98481.22
2023-01-18T01:14:44.266Z,98482.31
2023-01-18T01:20:04.109Z,98485.66
2023-01-18T01:25:24.449Z,98489.03
2023-01-18T01:30:25.756Z,98492.06
2023-01-18T01:35:27.129Z,98495.59
2023-01-18T01:40:28.508Z,98517.00
2023-01-18T01:45:31.400Z,98511.88
2023-01-18T01:50:38.263Z,98517.00
2023-01-18T01:55:40.566Z,98524.34
2023-01-18T02:00:42.099Z,98527.50
2023-01-18T02:05:44.900Z,98524.00
2023-01-18T02:10:46.612Z,98526.25
2023-01-18T02:15:47.931Z,98534.22
2023-01-18T02:21:10.813Z,98553.03
2023-01-18T02:26:31.054Z,98557.50
2023-01-18T02:31:39.461Z,98548.88
2023-01-18T02:36:56.213Z,98559.75
2023-01-18T02:42:20.787Z,98556.53
2023-01-18T02:47:23.383Z,98570.59
2023-01-18T02:52:42.115Z,98570.59
2023-01-18T02:57:43.797Z,98584.75
2023-01-18T03:02:47.841Z,98584.28
2023-01-18T03:07:53.560Z,98577.91
2023-01-18T03:13:13.888Z,98573.59
2023-01-18T03:18:18.771Z,98580.75
2023-01-18T03:23:40.668Z,98582.38
2023-01-18T03:29:04.705Z,98585.88
2023-01-18T03:34:14.276Z,98598.78
2023-01-18T03:39:19.275Z,98602.13
2023-01-18T03:44:34.039Z,98607.25
2023-01-18T03:49:35.861Z,98616.00
2023-01-18T03:54:42.355Z,98613.75
2023-01-18T03:59:43.792Z,98622.38
2023-01-18T04:04:45.190Z,98638.47
2023-01-18T04:09:46.523Z,98657.34
2023-01-18T04:14:47.922Z,98665.97
2023-01-18T04:19:49.267Z,98670.63
2023-01-18T04:24:50.711Z,98677.19
2023-01-18T04:29:52.138Z,98678.63
2023-01-18T04:34:53.531Z,98687.69
2023-01-18T04:39:54.846Z,98687.06
2023-01-18T04:44:56.336Z,98694.22
2023-01-18T04:49:57.967Z,98697.72
2023-01-18T04:54:59.309Z,98702.03
2023-01-18T05:00:02.304Z,98717.63
2023-01-18T05:05:04.961Z,98721.84
2023-01-18T05:10:06.467Z,98728.09
2023-01-18T05:15:08.215Z,98732.16
2023-01-18T05:20:10.552Z,98742.06
2023-01-18T05:25:11.868Z,98743.81
2023-01-18T05:30:13.931Z,98746.69
2023-01-18T05:35:15.664Z,98756.13
2023-01-18T05:40:17.125Z,98773.69
2023-01-18T05:45:18.464Z,98774.66
2023-01-18T05:50:20.398Z,98784.88
2023-01-18T05:55:21.704Z,98797.97
2023-01-18T06:00:23.212Z,98798.84
2023-01-18T06:05:24.800Z,98804.75
2023-01-18T06:10:26.137Z,98819.84
2023-01-18T06:15:27.453Z,98817.31
2023-01-18T06:20:30.441Z,98830.13
2023-01-18T06:25:31.827Z,98832.06
2023-01-18T06:30:34.255Z,98840.53
2023-01-18T06:35:36.322Z,98846.78
2023-01-18T06:40:37.712Z,98860.38
2023-01-18T06:45:39.049Z,98865.00
2023-01-18T06:50:40.413Z,98871.50
2023-01-18T06:55:41.724Z,98875.84
2023-01-18T07:00:43.061Z,98888.31
2023-01-18T07:05:46.415Z,98901.31
2023-01-18T07:10:48.369Z,98912.31
2023-01-18T07:15:54.528Z,98926.44
2023-01-18T07:21:07.148Z,98932.19
2023-01-18T07:26:08.503Z,98942.06
2023-01-18T07:31:09.847Z,98939.75
2023-01-18T07:36:11.605Z,98946.72
2023-01-18T07:41:14.332Z,98958.31
2023-01-18T07:46:18.473Z,98963.91
2023-01-18T07:51:21.712Z,98975.78
2023-01-18T07:56:25.131Z,98975.91
2023-01-18T08:01:26.614Z,98979.63
2023-01-18T08:06:28.610Z,98991.16
2023-01-18T08:11:29.935Z,98993.41
2023-01-18T08:16:31.324Z,99009.72
2023-01-18T08:21:33.574Z,99018.72
2023-01-18T08:26:34.916Z,99019.00
2023-01-18T08:31:36.295Z,99042.75
2023-01-18T08:36:37.647Z,99039.88
2023-01-18T08:41:38.993Z,99043.72
2023-01-18T08:46:40.512Z,99048.75
2023-01-18T08:51:42.118Z,99066.72
2023-01-18T08:56:43.425Z,99071.50
2023-01-18T09:01:44.788Z,99075.41
2023-01-18T09:06:47.242Z,99073.53
2023-01-18T09:11:52.308Z,99089.53
2023-01-18T09:16:53.657Z,99103.63
2023-01-18T09:21:54.999Z,99094.66
2023-01-18T09:26:56.640Z,99108.75
2023-01-18T09:31:57.975Z,99115.81
2023-01-18T09:36:59.301Z,99122.25
2023-01-18T09:42:01.896Z,99129.72
2023-01-18T09:47:17.945Z,99133.19
2023-01-18T09:52:25.528Z,99133.13
2023-01-18T09:57:32.005Z,99136.72
2023-01-18T10:02:40.325Z,99138.06
2023-01-18T10:07:54.981Z,99144.88
2023-01-18T10:13:06.735Z,99149.38
2023-01-18T10:18:09.374Z,99150.56
2023-01-18T10:23:30.148Z,99158.41
2023-01-18T10:28:50.978Z,99165.00
2023-01-18T10:33:57.121Z,99153.16
2023-01-18T10:39:01.334Z,99161.63
2023-01-18T10:44:02.761Z,99160.56
2023-01-18T10:49:04.402Z,99165.47
2023-01-18T10:54:17.943Z,99167.44
2023-01-18T10:59:30.176Z,99169.19
2023-01-18T11:04:32.421Z,99169.56
2023-01-18T11:09:46.389Z,99173.47
2023-01-18T11:14:47.751Z,99174.25
2023-01-18T11:20:05.392Z,99180.13
2023-01-18T11:25:16.414Z,99179.38
2023-01-18T11:30:21.040Z,99173.91
2023-01-18T11:35:30.693Z,99181.38
2023-01-18T11:40:33.395Z,99175.53
2023-01-18T11:45:38.899Z,99166.69
2023-01-18T11:50:46.648Z,99185.22
2023-01-18T11:55:55.965Z,99180.53
2023-01-18T12:01:00.393Z,99185.03
2023-01-18T12:06:05.545Z,99195.44
2023-01-18T12:11:09.711Z,99198.91
2023-01-18T12:16:23.474Z,99199.25
2023-01-18T12:21:35.970Z,99197.72
2023-01-18T12:26:58.038Z,99193.25
2023-01-18T12:32:12.341Z,99201.25
2023-01-18T12:37:25.905Z,99209.22
2023-01-18T12:42:27.187Z,99196.41
2023-01-18T12:47:31.045Z,99196.38
2023-01-18T12:52:36.724Z,99200.63
2023-01-18T12:57:38.132Z,99198.84
2023-01-18T13:02:47.267Z,99195.59
2023-01-18T13:07:52.030Z,99200.72
2023-01-18T13:12:54.201Z,99192.66
2023-01-18T13:17:59.770Z,99207.16
2023-01-18T13:23:01.700Z,99205.81
2023-01-18T13:28:05.434Z,99198.78
2023-01-18T13:33:13.779Z,99203.44
2023-01-18T13:38:18.170Z,99208.41
2023-01-18T13:43:30.108Z,99216.44
2023-01-18T13:48:51.336Z,99226.09
2023-01-18T13:53:53.159Z,99235.66
2023-01-18T13:58:56.471Z,99237.09
2023-01-18T14:04:04.450Z,99246.25
2023-01-18T14:09:07.487Z,99249.47
2023-01-18T14:14:11.787Z,99259.41
2023-01-18T14:19:18.309Z,99266.09
2023-01-18T14:24:28.747Z,99272.34
2023-01-18T14:29:47.743Z,99279.28
2023-01-18T14:34:58.341Z,99286.38
2023-01-18T14:40:06.904Z,99287.72
2023-01-18T14:45:17.307Z,99291.06
2023-01-18T14:50:20.146Z,99303.72
2023-01-18T14:55:29.211Z,99311.28
2023-01-18T15:00:30.609Z,99316.41
2023-01-18T15:05:32.028Z,99315.34
2023-01-18T15:10:35.307Z,99317.41
2023-01-18T15:15:42.167Z,99322.06
2023-01-18T15:20:57.173Z,99340.97
2023-01-18T15:25:58.776Z,99349.28
2023-01-18T15:31:04.867Z,99369.44
2023-01-18T15:36:06.558Z,99379.56
2023-01-18T15:41:11.351Z,99383.66
2023-01-18T15:46:14.382Z,99383.28
2023-01-18T15:51:15.798Z,99384.94
2023-01-18T15:56:19.220Z,99395.75
2023-01-18T16:01:21.630Z,99411.84
2023-01-18T16:06:24.625Z,99419.03
2023-01-18T16:11:31.083Z,99427.22
2023-01-18T16:16:34.597Z,99431.44
2023-01-18T16:21:40.489Z,99436.81
2023-01-18T16:26:42.996Z,99429.22
2023-01-18T16:31:44.536Z,99438.00
2023-01-18T16:36:45.893Z,99453.75
2023-01-18T16:41:57.464Z,99445.75
2023-01-18T16:46:58.797Z,99453.28
2023-01-18T16:52:00.201Z,99461.06
2023-01-18T16:57:01.499Z,99461.31
2023-01-18T17:02:02.919Z,99471.75
2023-01-18T17:07:06.634Z,99466.34
2023-01-18T17:12:08.443Z,99477.59
2023-01-18T17:17:10.414Z,99492.66
2023-01-18T17:22:11.772Z,99499.91
2023-01-18T17:27:14.671Z,99503.22
2023-01-18T17:32:16.603Z,99509.88
2023-01-18T17:37:17.915Z,99508.44
2023-01-18T17:42:29.428Z,99531.47
2023-01-18T17:47:32.491Z,99532.84
2023-01-18T17:52:34.103Z,99542.91
2023-01-18T17:57:35.435Z,99554.91
2023-01-18T18:02:36.784Z,99551.44
2023-01-18T18:07:38.236Z,99550.66
2023-01-18T18:12:39.551Z,99559.16
2023-01-18T18:17:40.921Z,99562.75
2023-01-18T18:22:42.306Z,99565.81
2023-01-18T18:27:46.585Z,99565.31
2023-01-18T18:32:48.432Z,99578.41
2023-01-18T18:37:49.749Z,99579.50
2023-01-18T18:43:01.654Z,99588.84
2023-01-18T18:48:03.818Z,99597.97
2023-01-18T18:53:05.136Z,99596.97
2023-01-18T18:58:06.449Z,99611.88
2023-01-18T19:03:08.633Z,99608.16
2023-01-18T19:08:10.540Z,99616.53
2023-01-18T19:13:11.906Z,99615.06
2023-01-18T19:18:13.221Z,99618.97
2023-01-18T19:23:14.568Z,99632.44
2023-01-18T19:28:16.114Z,99630.84
2023-01-18T19:33:17.429Z,99635.28
2023-01-18T19:38:18.763Z,99643.75
2023-01-18T19:43:20.201Z,99645.88
2023-01-18T19:48:21.528Z,99648.47
2023-01-18T19:53:22.838Z,99647.00
2023-01-18T19:58:24.158Z,99649.94
2023-01-18T20:03:28.686Z,99645.91
2023-01-18T20:08:30.040Z,99663.81
2023-01-18T20:13:31.345Z,99663.19
2023-01-18T20:18:33.188Z,99673.78
2023-01-18T20:23:34.519Z,99674.13
2023-01-18T20:28:36.229Z,99671.44
2023-01-18T20:33:38.397Z,99682.78
2023-01-18T20:38:40.050Z,99692.63
2023-01-18T20:43:41.420Z,99694.78
2023-01-18T20:48:42.803Z,99696.91
2023-01-18T20:53:44.135Z,99700.63
2023-01-18T20:58:45.440Z,99703.28
2023-01-18T21:03:51.881Z,99707.31
2023-01-18T21:08:53.890Z,99709.72
2023-01-18T21:13:56.020Z,99720.34
2023-01-18T21:18:59.039Z,99716.25
2023-01-18T21:24:00.559Z,99717.28
2023-01-18T21:29:01.877Z,99722.75
2023-01-18T21:34:03.212Z,99721.91
2023-01-18T21:39:04.721Z,99738.41
2023-01-18T21:44:24.528Z,99735.13
2023-01-18T21:50:15.650Z,99736.13
2023-01-18T21:55:05.673Z,99742.28
2023-01-18T22:00:07.491Z,99758.16
2023-01-18T22:05:09.843Z,99755.75
2023-01-18T22:10:11.221Z,99767.19
2023-01-18T22:15:12.687Z,99765.66
2023-01-18T22:20:14.128Z,99758.75
2023-01-18T22:25:15.465Z,99768.56
2023-01-18T22:30:16.914Z,99770.84
2023-01-18T22:35:18.686Z,99773.91
2023-01-18T22:40:20.016Z,99774.34
2023-01-18T22:45:21.329Z,99762.28
2023-01-18T22:50:22.658Z,99776.72
2023-01-18T22:55:23.995Z,99785.06
2023-01-18T23:00:27.892Z,99783.16
2023-01-18T23:05:29.251Z,99788.91
2023-01-18T23:10:30.623Z,99783.53
2023-01-18T23:15:50.668Z,99795.78
2023-01-18T23:20:56.501Z,99801.44
2023-01-18T23:25:58.703Z,99810.66
2023-01-18T23:31:00.052Z,99801.59
2023-01-18T23:36:01.401Z,99799.81
2023-01-18T23:41:21.394Z,99807.88
2023-01-18T23:46:41.427Z,99804.56
2023-01-18T23:52:01.470Z,99800.25
2023-01-18T23:57:03.196Z,99811.38
